Terminal Aerodrome Forecast
Issued by NWS

Home | Current Version | Previous Version | Text Only | Print | Product List | Glossary On
Versions: 1 2 3 4 5 6 7 8 9 10 11 12
000
FTUS45 KREV 050520
TAFCXP
TAF
KCXP 050520Z 0506/0606 VRB04KT P6SM VCSH BKN090 OVC180
     FM051400 VRB04KT P6SM -SHRA VCTS BKN040CB OVC070
     FM051900 34008KT P6SM -TSRA BKN040CB
     FM060300 VRB04KT P6SM VCSH BKN090=

USA.gov is the U.S. government's official web portal to all federal, state and local government web resources and services.